Impacts METAR Board
IDs:

KSAN - San Diego Intl Arpt, CA, US

Updated at: 0000 UTC 23 Jun 2018
Potential Impact None Slight Moderate High
Time 22/12Z 22/13Z 22/14Z 22/15Z 22/16Z 22/17Z 22/18Z 22/19Z 22/20Z 22/21Z 22/22Z 22/23Z 23/00Z
Temp65 65 65 66 67 70 72 73 73 74 74 73 71
Dewpt59 59 59 59 59 60 60 61 61 61 61 60 60
Altim29.91 29.91 29.92 29.93 29.93 29.92 29.91 29.90 29.88 29.87 29.85 29.84 29.84
VIS7 5 5 7 7 10 10 10 10 10 10 10 10
CIG10 13 12 14 15 -- -- -- -- -- -- -- --
CoverOVCOVCOVCOVCOVCSCTFEWFEWFEWFEWFEWFEWFEW
FltCatMVFRMVFRMVFRMVFRMVFRVFRVFRVFRVFRVFRVFRVFRVFR
WX--BRBR--------------------
WDir02903500300310300300290300300290270
WSpd0 4 3 0 5 7 7 9 9 9 9 10 10
WGst-- -- -- -- -- -- -- -- -- -- -- -- --
Raw hourly METARs
KSAN 221151Z 00000KT 7SM OVC010 18/15 A2991 RMK AO2 SLP128 T01830150 10183 20178 58008
KSAN 221251Z 29004KT 5SM BR OVC013 18/15 A2991 RMK AO2 SLP128 T01830150
KSAN 221351Z 35003KT 5SM BR OVC012 18/15 A2992 RMK AO2 SLP131 T01830150
KSAN 221451Z 00000KT 7SM OVC014 19/15 A2993 RMK AO2 SLP133 T01890150 53006
KSAN 221551Z 30005KT 7SM OVC015 19/15 A2993 RMK AO2 SLP134 T01940150
KSAN 221651Z 31007KT 10SM SCT016 21/16 A2992 RMK AO2 SLP133 T02110156
KSAN 221751Z 30007KT 10SM FEW018 22/16 A2991 RMK AO2 SLP128 T02220156 10222 20183 58005
KSAN 221851Z 30009KT 10SM FEW018 23/16 A2990 RMK AO2 SLP125 T02280161
KSAN 221951Z 29009KT 10SM FEW018 23/16 A2988 RMK AO2 SLP118 T02280161
KSAN 222051Z 30009KT 10SM FEW018 23/16 A2987 RMK AO2 SLP113 T02330161 58015
KSAN 222151Z 30009KT 10SM FEW015 23/16 A2985 RMK AO2 SLP109 T02330161
KSAN 222251Z 29010KT 10SM FEW015 23/16 A2984 RMK AO2 SLP105 T02280156
KSAN 222351Z 27010KT 10SM FEW014 22/16 A2984 RMK AO2 SLP103 T02170156 10239 20217 56010



Page loaded:  00:16 UTC  |   05:16 PM Pacific  |   06:16 PM Mountain  |   07:16 PM Central  |   08:16 PM Eastern

 

ADVISORIES

FORECASTS

FORECASTS

OBSERVATIONS

USER TOOLS

ABOUT US